createdAt,value
2023-01-09T00:01:25.685Z,93651.50
2023-01-09T00:03:52.716Z,93644.34
2023-01-09T00:06:19.697Z,93640.16
2023-01-09T00:08:46.741Z,93633.56
2023-01-09T00:11:13.755Z,93640.38
2023-01-09T00:13:40.733Z,93633.03
2023-01-09T00:16:08.747Z,93624.81
2023-01-09T00:18:37.933Z,93624.84
2023-01-09T00:21:09.347Z,93621.09
2023-01-09T00:23:36.722Z,93607.72
2023-01-09T00:26:19.629Z,93604.75
2023-01-09T00:28:49.804Z,93602.75
2023-01-09T00:31:18.332Z,93600.97
2023-01-09T00:33:59.538Z,93597.00
2023-01-09T00:36:27.277Z,93589.00
2023-01-09T00:38:54.556Z,93588.03
2023-01-09T00:41:27.767Z,93570.66
2023-01-09T00:44:07.332Z,93570.03
2023-01-09T00:46:40.822Z,93567.44
2023-01-09T00:49:09.679Z,93573.63
2023-01-09T00:51:38.141Z,93578.81
2023-01-09T00:54:05.568Z,93570.81
2023-01-09T00:56:36.058Z,93565.63
2023-01-09T00:59:04.560Z,93552.63
2023-01-09T01:01:32.030Z,93550.84
2023-01-09T01:03:59.047Z,93549.06
2023-01-09T01:06:58.263Z,93545.88
2023-01-09T01:09:25.314Z,93538.22
2023-01-09T01:11:52.223Z,93542.44
2023-01-09T01:14:19.264Z,93544.25
2023-01-09T01:16:46.368Z,93538.22
2023-01-09T01:19:13.527Z,93544.81
2023-01-09T01:21:40.842Z,93544.63
2023-01-09T01:24:07.919Z,93554.81
2023-01-09T01:26:34.854Z,93549.44
2023-01-09T01:29:02.157Z,93546.66
2023-01-09T01:31:29.118Z,93552.63
2023-01-09T01:33:57.608Z,93548.88
2023-01-09T01:36:24.751Z,93554.88
2023-01-09T01:38:52.099Z,93551.47
2023-01-09T01:41:29.600Z,93555.66
2023-01-09T01:44:02.419Z,93549.28
2023-01-09T01:46:31.826Z,93533.50
2023-01-09T01:49:11.014Z,93531.72
2023-01-09T01:51:45.005Z,93523.72
2023-01-09T01:54:22.876Z,93523.53
2023-01-09T01:56:56.940Z,93519.75
2023-01-09T01:59:28.841Z,93516.97
2023-01-09T02:02:00.683Z,93515.19
2023-01-09T02:04:29.624Z,93514.00
2023-01-09T02:06:58.846Z,93511.81
2023-01-09T02:09:26.864Z,93492.00
2023-01-09T02:11:57.631Z,93485.63
2023-01-09T02:14:28.644Z,93476.63
2023-01-09T02:17:21.129Z,93461.03
2023-01-09T02:20:23.938Z,93450.66
2023-01-09T02:23:21.784Z,93433.84
2023-01-09T02:26:13.133Z,93436.44
2023-01-09T02:29:20.702Z,93423.44
2023-01-09T02:32:00.200Z,93414.06
2023-01-09T02:34:33.715Z,93407.25
2023-01-09T02:37:25.685Z,93407.25
2023-01-09T02:40:25.664Z,93398.84
2023-01-09T02:42:55.514Z,93391.25
2023-01-09T02:45:22.975Z,93395.66
2023-01-09T02:47:49.970Z,93395.66
2023-01-09T02:50:33.787Z,93399.03
2023-01-09T02:53:06.492Z,93392.84
2023-01-09T02:56:06.681Z,93387.66
2023-01-09T02:59:10.824Z,93393.06
2023-01-09T03:02:01.503Z,93397.22
2023-01-09T03:05:30.077Z,93385.25
2023-01-09T03:08:04.918Z,93386.66
2023-01-09T03:10:54.705Z,93396.03
2023-01-09T03:13:25.936Z,93387.88
2023-01-09T03:15:56.356Z,93391.06
2023-01-09T03:18:27.518Z,93384.47
2023-01-09T03:20:55.926Z,93382.50
2023-01-09T03:23:23.355Z,93390.69
2023-01-09T03:25:50.437Z,93388.50
2023-01-09T03:28:30.095Z,93384.72
2023-01-09T03:30:57.271Z,93376.72
2023-01-09T03:33:24.187Z,93364.31
2023-01-09T03:35:51.463Z,93356.31
2023-01-09T03:38:18.487Z,93355.53
2023-01-09T03:40:45.636Z,93361.31
2023-01-09T03:43:12.768Z,93354.34
2023-01-09T03:45:39.759Z,93348.31
2023-01-09T03:48:06.993Z,93349.72
2023-01-09T03:50:33.978Z,93347.94
2023-01-09T03:53:01.326Z,93345.13
2023-01-09T03:55:28.777Z,93345.13
2023-01-09T03:57:55.746Z,93346.72
2023-01-09T04:00:22.950Z,93336.94
2023-01-09T04:02:50.744Z,93334.94
2023-01-09T04:05:17.722Z,93327.94
2023-01-09T04:07:44.905Z,93330.34
2023-01-09T04:10:12.352Z,93327.72
2023-01-09T04:12:39.535Z,93338.75
2023-01-09T04:15:07.387Z,93335.94
2023-01-09T04:17:34.387Z,93341.94
2023-01-09T04:20:01.364Z,93343.53
2023-01-09T04:22:28.343Z,93345.34
2023-01-09T04:24:55.416Z,93345.56
2023-01-09T04:27:22.336Z,93347.34
2023-01-09T04:29:49.327Z,93335.16
2023-01-09T04:32:16.401Z,93333.13
2023-01-09T04:34:43.308Z,93323.56
2023-01-09T04:37:10.528Z,93309.56
2023-01-09T04:39:37.553Z,93309.56
2023-01-09T04:42:04.670Z,93311.13
2023-01-09T04:44:31.836Z,93304.13
2023-01-09T04:46:59.035Z,93300.72
2023-01-09T04:49:26.560Z,93308.72
2023-01-09T04:51:54.000Z,93296.56
2023-01-09T04:54:21.655Z,93283.34
2023-01-09T04:56:49.303Z,93289.31
2023-01-09T04:59:17.237Z,93297.13
2023-01-09T05:01:44.427Z,93300.53
2023-01-09T05:04:11.833Z,93299.53
2023-01-09T05:06:39.389Z,93297.75
2023-01-09T05:09:06.339Z,93299.53
2023-01-09T05:11:33.303Z,93301.13
2023-01-09T05:14:00.328Z,93296.75
2023-01-09T05:16:27.329Z,93308.53
2023-01-09T05:18:57.104Z,93303.34
2023-01-09T05:21:24.700Z,93309.94
2023-01-09T05:23:51.727Z,93314.94
2023-01-09T05:26:23.980Z,93311.72
2023-01-09T05:28:56.661Z,93316.72
2023-01-09T05:31:25.895Z,93314.72
2023-01-09T05:33:53.624Z,93314.53
2023-01-09T05:36:20.659Z,93326.31
2023-01-09T05:38:47.709Z,93325.94
2023-01-09T05:41:14.866Z,93328.53
2023-01-09T05:43:41.875Z,93338.53
2023-01-09T05:46:09.275Z,93345.34
2023-01-09T05:48:36.406Z,93341.75
2023-01-09T05:51:03.584Z,93351.75
2023-01-09T05:53:30.475Z,93356.97
2023-01-09T05:55:57.553Z,93360.13
2023-01-09T05:58:24.482Z,93357.75
2023-01-09T06:00:53.736Z,93370.16
2023-01-09T06:03:20.918Z,93379.56
2023-01-09T06:05:47.923Z,93381.97
2023-01-09T06:08:14.955Z,93391.97
2023-01-09T06:10:41.873Z,93392.38
2023-01-09T06:13:09.096Z,93391.78
2023-01-09T06:15:36.356Z,93393.78
2023-01-09T06:18:04.558Z,93386.16
2023-01-09T06:20:32.738Z,93390.56
2023-01-09T06:23:00.024Z,93392.16
2023-01-09T06:25:26.992Z,93389.56
2023-01-09T06:27:54.183Z,93392.16
2023-01-09T06:30:21.802Z,93386.97
2023-01-09T06:32:50.145Z,93397.56
2023-01-09T06:35:22.270Z,93390.56
2023-01-09T06:37:50.050Z,93401.97
2023-01-09T06:40:20.109Z,93393.56
2023-01-09T06:42:47.897Z,93397.16
2023-01-09T06:45:15.719Z,93399.16
2023-01-09T06:47:42.891Z,93398.38
2023-01-09T06:50:11.262Z,93400.56
2023-01-09T06:52:39.165Z,93409.34
2023-01-09T06:55:07.502Z,93402.16
2023-01-09T06:57:34.640Z,93404.16
2023-01-09T07:00:01.805Z,93401.75
2023-01-09T07:02:28.915Z,93400.94
2023-01-09T07:04:55.868Z,93398.97
2023-01-09T07:07:23.444Z,93400.75
2023-01-09T07:09:50.687Z,93406.56
2023-01-09T07:12:17.991Z,93415.16
2023-01-09T07:14:45.038Z,93415.34
2023-01-09T07:17:13.520Z,93414.34
2023-01-09T07:19:42.089Z,93418.56
2023-01-09T07:22:10.419Z,93424.56
2023-01-09T07:24:37.732Z,93426.16
2023-01-09T07:27:04.709Z,93425.16
2023-01-09T07:29:31.919Z,93423.19
2023-01-09T07:31:59.147Z,93426.56
2023-01-09T07:34:26.111Z,93433.19
2023-01-09T07:36:53.155Z,93423.59
2023-01-09T07:39:20.261Z,93430.38
2023-01-09T07:41:47.296Z,93425.38
2023-01-09T07:44:17.053Z,93434.16
2023-01-09T07:46:44.099Z,93447.38
2023-01-09T07:49:11.523Z,93450.56
2023-01-09T07:51:42.965Z,93459.97
2023-01-09T07:54:11.795Z,93459.94
2023-01-09T07:56:40.856Z,93465.53
2023-01-09T07:59:07.945Z,93465.13
2023-01-09T08:01:35.403Z,93457.50
2023-01-09T08:04:02.612Z,93458.31
2023-01-09T08:06:30.188Z,93464.50
2023-01-09T08:08:57.966Z,93475.13
2023-01-09T08:11:25.720Z,93481.09
2023-01-09T08:13:53.147Z,93473.91
2023-01-09T08:16:20.249Z,93468.16
2023-01-09T08:18:47.332Z,93478.94
2023-01-09T08:21:14.367Z,93470.97
2023-01-09T08:23:41.429Z,93473.56
2023-01-09T08:26:08.394Z,93477.97
2023-01-09T08:28:35.367Z,93487.59
2023-01-09T08:31:02.602Z,93499.44
2023-01-09T08:33:29.914Z,93498.44
2023-01-09T08:35:56.873Z,93499.06
2023-01-09T08:38:24.059Z,93506.50
2023-01-09T08:40:51.102Z,93509.13
2023-01-09T08:43:37.112Z,93508.13
2023-01-09T08:46:22.544Z,93519.97
2023-01-09T08:48:49.707Z,93522.38
2023-01-09T08:51:16.688Z,93530.41
2023-01-09T08:53:43.708Z,93531.38
2023-01-09T08:56:10.839Z,93534.00
2023-01-09T08:58:38.073Z,93534.81
2023-01-09T09:01:08.486Z,93536.59
2023-01-09T09:03:35.993Z,93550.44
2023-01-09T09:06:03.197Z,93552.81
2023-01-09T09:08:30.271Z,93536.19
2023-01-09T09:10:57.442Z,93542.34
2023-01-09T09:13:24.422Z,93540.53
2023-01-09T09:15:51.515Z,93547.16
2023-01-09T09:18:18.726Z,93549.94
2023-01-09T09:20:46.028Z,93549.72
2023-01-09T09:23:13.020Z,93555.94
2023-01-09T09:25:40.007Z,93552.91
2023-01-09T09:28:07.762Z,93561.72
2023-01-09T09:30:34.970Z,93570.34
2023-01-09T09:33:05.895Z,93572.94
2023-01-09T09:35:34.040Z,93564.69
2023-01-09T09:38:05.419Z,93567.28
2023-01-09T09:40:54.035Z,93574.28
2023-01-09T09:44:12.621Z,93571.88
2023-01-09T09:47:06.224Z,93570.44
2023-01-09T09:50:15.697Z,93576.41
2023-01-09T09:52:48.377Z,93574.59
2023-01-09T09:55:40.766Z,93573.97
2023-01-09T09:58:49.372Z,93571.75
2023-01-09T10:01:23.308Z,93575.91
2023-01-09T10:03:59.399Z,93568.06
2023-01-09T10:06:33.966Z,93567.81
2023-01-09T10:09:18.994Z,93570.59
2023-01-09T10:12:13.291Z,93569.75
2023-01-09T10:14:40.578Z,93582.34
2023-01-09T10:17:39.204Z,93572.47
2023-01-09T10:20:33.444Z,93577.22
2023-01-09T10:23:48.122Z,93574.94
2023-01-09T10:26:18.894Z,93582.94
2023-01-09T10:29:04.841Z,93591.72
2023-01-09T10:32:00.288Z,93580.63
2023-01-09T10:34:46.890Z,93577.38
2023-01-09T10:37:36.536Z,93578.91
2023-01-09T10:40:30.473Z,93589.19
2023-01-09T10:43:08.271Z,93592.81
2023-01-09T10:45:50.775Z,93593.81
2023-01-09T10:48:36.716Z,93589.59
2023-01-09T10:51:17.721Z,93590.59
2023-01-09T10:53:53.149Z,93586.38
2023-01-09T10:56:27.638Z,93584.81
2023-01-09T10:58:56.171Z,93597.44
2023-01-09T11:01:31.427Z,93595.22
2023-01-09T11:04:01.623Z,93599.44
2023-01-09T11:06:48.095Z,93605.41
2023-01-09T11:09:16.883Z,93592.53
2023-01-09T11:11:47.313Z,93597.41
2023-01-09T11:14:31.453Z,93601.41
2023-01-09T11:17:02.227Z,93598.56
2023-01-09T11:19:33.404Z,93589.63
2023-01-09T11:22:16.423Z,93606.94
2023-01-09T11:24:43.771Z,93605.91
2023-01-09T11:27:13.841Z,93621.84
2023-01-09T11:29:43.798Z,93634.09
2023-01-09T11:32:24.873Z,93631.13
2023-01-09T11:34:52.136Z,93628.34
2023-01-09T11:37:30.511Z,93621.31
2023-01-09T11:40:01.529Z,93623.94
2023-01-09T11:42:48.534Z,93620.50
2023-01-09T11:45:18.150Z,93623.13
2023-01-09T11:47:45.448Z,93609.44
2023-01-09T11:50:21.784Z,93602.63
2023-01-09T11:53:16.457Z,93615.03
2023-01-09T11:55:45.604Z,93616.25
2023-01-09T11:58:21.763Z,93617.66
2023-01-09T12:00:55.878Z,93616.66
2023-01-09T12:03:52.290Z,93618.91
2023-01-09T12:06:58.596Z,93622.09
2023-01-09T12:10:03.024Z,93621.50
2023-01-09T12:13:02.127Z,93613.66
2023-01-09T12:16:32.180Z,93624.88
2023-01-09T12:19:45.019Z,93620.47
2023-01-09T12:22:33.173Z,93617.63
2023-01-09T12:25:18.077Z,93617.63
2023-01-09T12:28:10.927Z,93622.63
2023-01-09T12:30:40.540Z,93633.06
2023-01-09T12:33:38.267Z,93642.66
2023-01-09T12:37:12.418Z,93645.50
2023-01-09T12:40:53.050Z,93646.31
2023-01-09T12:43:45.804Z,93642.13
2023-01-09T12:46:26.599Z,93649.75
2023-01-09T12:49:34.646Z,93647.16
2023-01-09T12:52:12.571Z,93643.72
2023-01-09T12:54:54.286Z,93656.78
2023-01-09T12:57:28.707Z,93656.22
2023-01-09T13:00:15.025Z,93652.78
2023-01-09T13:03:03.685Z,93650.63
2023-01-09T13:05:45.706Z,93649.41
2023-01-09T13:08:32.366Z,93648.03
2023-01-09T13:11:59.932Z,93642.66
2023-01-09T13:14:44.474Z,93640.41
2023-01-09T13:17:38.061Z,93641.75
2023-01-09T13:20:50.687Z,93640.69
2023-01-09T13:23:44.953Z,93643.50
2023-01-09T13:26:26.057Z,93656.97
2023-01-09T13:29:04.218Z,93654.34
2023-01-09T13:31:45.300Z,93647.28
2023-01-09T13:34:25.791Z,93654.53
2023-01-09T13:36:56.293Z,93654.16
2023-01-09T13:39:27.353Z,93661.47
2023-01-09T13:42:21.777Z,93658.19
2023-01-09T13:44:55.391Z,93663.38
2023-01-09T13:47:28.673Z,93671.75
2023-01-09T13:50:26.341Z,93671.88
2023-01-09T13:52:53.858Z,93679.09
2023-01-09T13:55:24.975Z,93686.75
2023-01-09T13:58:08.700Z,93687.41
2023-01-09T14:00:36.099Z,93690.28
2023-01-09T14:03:18.651Z,93693.38
2023-01-09T14:05:46.007Z,93685.56
2023-01-09T14:08:22.189Z,93702.56
2023-01-09T14:11:01.438Z,93699.97
2023-01-09T14:13:33.396Z,93713.31
2023-01-09T14:16:20.376Z,93707.91
2023-01-09T14:19:19.093Z,93711.19
2023-01-09T14:21:54.358Z,93705.97
2023-01-09T14:24:29.561Z,93696.97
2023-01-09T14:26:59.815Z,93696.75
2023-01-09T14:29:29.605Z,93704.44
2023-01-09T14:32:36.996Z,93709.13
2023-01-09T14:35:16.852Z,93702.91
2023-01-09T14:37:53.406Z,93707.13
2023-01-09T14:40:23.993Z,93708.16
2023-01-09T14:42:59.568Z,93712.81
2023-01-09T14:45:27.672Z,93709.19
2023-01-09T14:48:04.248Z,93710.44
2023-01-09T14:50:55.787Z,93722.09
2023-01-09T14:53:39.269Z,93717.28
2023-01-09T14:56:15.044Z,93722.91
2023-01-09T14:58:42.161Z,93715.69
2023-01-09T15:01:22.941Z,93728.53
2023-01-09T15:03:54.187Z,93726.94
2023-01-09T15:06:26.595Z,93738.81
2023-01-09T15:09:01.419Z,93732.19
2023-01-09T15:11:29.450Z,93728.19
2023-01-09T15:14:00.158Z,93737.03
2023-01-09T15:16:29.049Z,93741.63
2023-01-09T15:19:01.412Z,93747.28
2023-01-09T15:21:31.537Z,93752.69
2023-01-09T15:24:29.448Z,93755.72
2023-01-09T15:27:05.194Z,93761.16
2023-01-09T15:29:32.241Z,93756.94
2023-01-09T15:32:04.279Z,93766.78
2023-01-09T15:34:33.058Z,93755.72
2023-01-09T15:37:01.001Z,93764.59
2023-01-09T15:39:46.180Z,93764.38
2023-01-09T15:42:57.997Z,93760.56
2023-01-09T15:45:33.750Z,93765.56
2023-01-09T15:48:16.241Z,93764.78
2023-01-09T15:50:47.512Z,93767.00
2023-01-09T15:53:26.975Z,93764.38
2023-01-09T15:56:12.360Z,93764.38
2023-01-09T15:58:41.497Z,93768.78
2023-01-09T16:01:36.013Z,93776.81
2023-01-09T16:04:12.758Z,93783.03
2023-01-09T16:06:48.082Z,93787.06
2023-01-09T16:09:24.059Z,93774.81
2023-01-09T16:11:55.405Z,93770.00
2023-01-09T16:14:25.015Z,93771.00
2023-01-09T16:16:53.614Z,93766.19
2023-01-09T16:19:53.775Z,93762.78
2023-01-09T16:22:33.594Z,93762.19
2023-01-09T16:25:18.993Z,93766.00
2023-01-09T16:28:28.271Z,93761.38
2023-01-09T16:31:09.333Z,93757.56
2023-01-09T16:33:44.854Z,93760.56
2023-01-09T16:36:14.299Z,93765.00
2023-01-09T16:38:44.905Z,93775.81
2023-01-09T16:41:40.024Z,93778.44
2023-01-09T16:44:10.614Z,93780.63
2023-01-09T16:46:43.556Z,93775.63
2023-01-09T16:49:22.051Z,93787.06
2023-01-09T16:51:50.776Z,93783.66
2023-01-09T16:54:18.216Z,93787.06
2023-01-09T16:56:49.170Z,93787.47
2023-01-09T16:59:21.568Z,93785.25
2023-01-09T17:01:49.362Z,93798.28
2023-01-09T17:04:17.757Z,93787.06
2023-01-09T17:06:45.306Z,93782.06
2023-01-09T17:09:15.551Z,93781.22
2023-01-09T17:11:43.145Z,93778.63
2023-01-09T17:14:15.020Z,93790.25
2023-01-09T17:16:45.800Z,93798.50
2023-01-09T17:19:19.520Z,93790.66
2023-01-09T17:21:46.910Z,93801.28
2023-01-09T17:24:33.224Z,93810.09
2023-01-09T17:27:20.778Z,93812.69
2023-01-09T17:29:48.444Z,93815.53
2023-01-09T17:32:20.327Z,93813.13
2023-01-09T17:34:47.290Z,93808.69
2023-01-09T17:37:17.965Z,93815.53
2023-01-09T17:39:45.657Z,93802.88
2023-01-09T17:42:12.946Z,93806.09
2023-01-09T17:44:40.348Z,93805.28
2023-01-09T17:47:14.732Z,93809.50
2023-01-09T17:49:42.451Z,93802.06
2023-01-09T17:52:09.445Z,93808.09
2023-01-09T17:54:36.474Z,93812.50
2023-01-09T17:57:03.830Z,93810.72
2023-01-09T17:59:31.116Z,93816.31
2023-01-09T18:01:58.640Z,93814.69
2023-01-09T18:04:25.662Z,93821.53
2023-01-09T18:06:54.704Z,93819.91
2023-01-09T18:09:21.709Z,93824.34
2023-01-09T18:11:48.694Z,93826.31
2023-01-09T18:14:15.715Z,93819.31
2023-01-09T18:16:44.238Z,93821.53
2023-01-09T18:19:11.329Z,93818.91
2023-01-09T18:21:38.590Z,93815.69
2023-01-09T18:24:06.107Z,93825.13
2023-01-09T18:26:33.366Z,93819.28
2023-01-09T18:29:01.231Z,93818.69
2023-01-09T18:31:29.901Z,93820.91
2023-01-09T18:34:02.294Z,93818.69
2023-01-09T18:36:30.288Z,93821.50
2023-01-09T18:39:03.342Z,93813.88
2023-01-09T18:41:31.717Z,93820.09
2023-01-09T18:44:00.582Z,93818.47
2023-01-09T18:46:32.068Z,93824.69
2023-01-09T18:49:04.986Z,93830.88
2023-01-09T18:51:36.315Z,93842.34
2023-01-09T18:54:03.846Z,93852.56
2023-01-09T18:56:31.071Z,93849.13
2023-01-09T18:58:58.520Z,93858.16
2023-01-09T19:01:28.453Z,93857.16
2023-01-09T19:03:57.110Z,93851.31
2023-01-09T19:06:25.078Z,93851.31
2023-01-09T19:08:52.344Z,93852.50
2023-01-09T19:11:19.355Z,93869.19
2023-01-09T19:13:46.834Z,93870.75
2023-01-09T19:16:14.011Z,93869.97
2023-01-09T19:18:42.399Z,93870.97
2023-01-09T19:21:19.218Z,93879.19
2023-01-09T19:23:48.057Z,93884.00
2023-01-09T19:26:25.953Z,93879.19
2023-01-09T19:28:55.359Z,93883.78
2023-01-09T19:31:24.624Z,93882.16
2023-01-09T19:33:52.620Z,93888.00
2023-01-09T19:36:20.994Z,93882.16
2023-01-09T19:38:48.175Z,93883.16
2023-01-09T19:41:19.806Z,93885.97
2023-01-09T19:43:48.123Z,93892.97
2023-01-09T19:46:22.047Z,93896.38
2023-01-09T19:48:50.163Z,93893.97
2023-01-09T19:51:20.357Z,93895.97
2023-01-09T19:56:29.715Z,93895.19
2023-01-09T19:59:00.554Z,93897.97
2023-01-09T20:01:31.747Z,93903.16
2023-01-09T20:04:04.814Z,93897.16
2023-01-09T20:06:32.449Z,93904.16
2023-01-09T20:09:02.581Z,93909.19
2023-01-09T20:11:31.900Z,93910.00
2023-01-09T20:14:00.058Z,93911.59
2023-01-09T20:16:30.531Z,93914.84
2023-01-09T20:19:01.218Z,93918.22
2023-01-09T20:21:29.729Z,93914.22
2023-01-09T20:24:00.158Z,93920.47
2023-01-09T20:26:29.014Z,93916.84
2023-01-09T20:28:57.122Z,93923.88
2023-01-09T20:31:31.236Z,93921.25
2023-01-09T20:33:59.757Z,93933.66
2023-01-09T20:36:30.352Z,93922.66
2023-01-09T20:39:01.290Z,93928.84
2023-01-09T20:41:30.683Z,93929.66
2023-01-09T20:44:07.219Z,93930.47
2023-01-09T20:46:39.269Z,93932.25
2023-01-09T20:49:09.997Z,93937.88
2023-01-09T20:51:45.965Z,93928.09
2023-01-09T20:54:14.638Z,93937.69
2023-01-09T20:56:41.748Z,93943.53
2023-01-09T20:59:14.620Z,93934.72
2023-01-09T21:01:41.977Z,93939.72
2023-01-09T21:04:09.644Z,93940.72
2023-01-09T21:06:37.573Z,93949.34
2023-01-09T21:09:05.526Z,93946.94
2023-01-09T21:11:33.040Z,93946.13
2023-01-09T21:14:00.291Z,93953.31
2023-01-09T21:16:27.367Z,93952.53
2023-01-09T21:18:55.348Z,93953.53
2023-01-09T21:21:25.332Z,93947.69
2023-01-09T21:23:55.595Z,93956.31
2023-01-09T21:26:27.483Z,93953.09
2023-01-09T21:28:57.222Z,93960.31
2023-01-09T21:31:34.639Z,93961.47
2023-01-09T21:34:08.143Z,93967.31
2023-01-09T21:36:35.788Z,93969.13
2023-01-09T21:39:07.618Z,93976.94
2023-01-09T21:41:53.909Z,93988.59
2023-01-09T21:44:39.367Z,93981.41
2023-01-09T21:47:06.420Z,93983.81
2023-01-09T21:49:35.210Z,93999.25
2023-01-09T21:52:04.232Z,93991.06
2023-01-09T21:54:31.536Z,93993.47
2023-01-09T21:56:59.184Z,93996.88
2023-01-09T21:59:26.302Z,94004.31
2023-01-09T22:01:53.507Z,94000.50
2023-01-09T22:04:24.079Z,94009.31
2023-01-09T22:06:51.113Z,94007.72
2023-01-09T22:09:18.561Z,94009.94
2023-01-09T22:11:45.697Z,94016.16
2023-01-09T22:14:15.999Z,94017.16
2023-01-09T22:16:44.559Z,94025.38
2023-01-09T22:19:13.448Z,94015.94
2023-01-09T22:21:40.732Z,94018.34
2023-01-09T22:24:08.054Z,94029.75
2023-01-09T22:26:35.306Z,94022.94
2023-01-09T22:29:02.424Z,94034.16
2023-01-09T22:31:29.639Z,94035.16
2023-01-09T22:33:59.393Z,94029.72
2023-01-09T22:36:29.153Z,94032.53
2023-01-09T22:38:58.463Z,94034.31
2023-01-09T22:41:27.674Z,94028.66
2023-01-09T22:43:54.756Z,94046.13
2023-01-09T22:46:21.948Z,94040.09
2023-01-09T22:48:49.054Z,94042.09
2023-01-09T22:51:19.173Z,94042.25
2023-01-09T22:53:46.687Z,94032.84
2023-01-09T22:56:17.659Z,94040.69
2023-01-09T22:58:45.242Z,94042.25
2023-01-09T23:01:13.122Z,94047.47
2023-01-09T23:03:40.418Z,94042.09
2023-01-09T23:06:14.924Z,94043.72
2023-01-09T23:08:43.274Z,94046.72
2023-01-09T23:11:42.191Z,94036.28
2023-01-09T23:14:10.765Z,94041.34
2023-01-09T23:16:37.856Z,94035.72
2023-01-09T23:19:17.236Z,94046.16
2023-01-09T23:21:45.590Z,94044.53
2023-01-09T23:24:17.485Z,94043.94
2023-01-09T23:26:45.188Z,94042.53
2023-01-09T23:29:13.326Z,94042.69
2023-01-09T23:31:40.506Z,94039.66
2023-01-09T23:34:08.357Z,94045.88
2023-01-09T23:36:35.766Z,94047.25
2023-01-09T23:39:04.418Z,94054.06
2023-01-09T23:41:54.277Z,94047.25
2023-01-09T23:44:21.353Z,94052.66
2023-01-09T23:46:48.313Z,94056.03
2023-01-09T23:49:15.538Z,94055.06
2023-01-09T23:51:42.487Z,94061.88
2023-01-09T23:54:09.634Z,94059.06
2023-01-09T23:56:36.774Z,94065.28
2023-01-09T23:59:06.901Z,94066.72
